sensor_id;sensor_type;location;lat;lon;timestamp;temperature;humidity
58519;DHT22;44310;48.106;12.008;2023-04-03T00:01:04;16.80;86.90
58519;DHT22;44310;48.106;12.008;2023-04-03T00:03:31;16.50;86.70
58519;DHT22;44310;48.106;12.008;2023-04-03T00:05:58;16.80;86.70
58519;DHT22;44310;48.106;12.008;2023-04-03T00:08:25;16.90;86.50
58519;DHT22;44310;48.106;12.008;2023-04-03T00:10:52;16.80;86.50
58519;DHT22;44310;48.106;12.008;2023-04-03T00:13:19;16.80;86.70
58519;DHT22;44310;48.106;12.008;2023-04-03T00:15:46;16.90;87.30
58519;DHT22;44310;48.106;12.008;2023-04-03T00:18:14;16.90;87.30
58519;DHT22;44310;48.106;12.008;2023-04-03T00:20:41;16.90;87.30
58519;DHT22;44310;48.106;12.008;2023-04-03T00:23:08;16.90;86.80
58519;DHT22;44310;48.106;12.008;2023-04-03T00:25:35;16.50;86.20
58519;DHT22;44310;48.106;12.008;2023-04-03T00:28:03;16.70;86.30
58519;DHT22;44310;48.106;12.008;2023-04-03T00:30:31;16.90;86.60
58519;DHT22;44310;48.106;12.008;2023-04-03T00:32:58;16.80;86.60
58519;DHT22;44310;48.106;12.008;2023-04-03T00:35:25;16.80;86.40
58519;DHT22;44310;48.106;12.008;2023-04-03T00:37:54;16.80;86.30
58519;DHT22;44310;48.106;12.008;2023-04-03T00:40:24;16.90;86.30
58519;DHT22;44310;48.106;12.008;2023-04-03T00:42:56;16.80;86.30
58519;DHT22;44310;48.106;12.008;2023-04-03T00:45:31;16.80;86.30
58519;DHT22;44310;48.106;12.008;2023-04-03T00:48:00;16.80;86.70
58519;DHT22;44310;48.106;12.008;2023-04-03T00:50:29;17.20;85.80
58519;DHT22;44310;48.106;12.008;2023-04-03T00:52:57;16.80;85.80
58519;DHT22;44310;48.106;12.008;2023-04-03T00:55:25;16.90;85.90
58519;DHT22;44310;48.106;12.008;2023-04-03T00:57:53;16.50;85.60
58519;DHT22;44310;48.106;12.008;2023-04-03T01:00:22;16.80;85.40
58519;DHT22;44310;48.106;12.008;2023-04-03T01:02:51;16.50;85.50
58519;DHT22;44310;48.106;12.008;2023-04-03T01:05:19;16.80;86.50
58519;DHT22;44310;48.106;12.008;2023-04-03T01:07:48;17.00;87.20
58519;DHT22;44310;48.106;12.008;2023-04-03T01:10:17;16.70;87.00
58519;DHT22;44310;48.106;12.008;2023-04-03T01:12:48;17.00;87.10
58519;DHT22;44310;48.106;12.008;2023-04-03T01:15:20;17.00;87.00
58519;DHT22;44310;48.106;12.008;2023-04-03T01:17:50;17.00;86.60
58519;DHT22;44310;48.106;12.008;2023-04-03T01:25:35;16.90;86.70
58519;DHT22;44310;48.106;12.008;2023-04-03T01:28:04;17.00;86.70
58519;DHT22;44310;48.106;12.008;2023-04-03T01:30:35;16.90;86.10
58519;DHT22;44310;48.106;12.008;2023-04-03T01:33:03;16.90;85.80
58519;DHT22;44310;48.106;12.008;2023-04-03T01:35:30;16.90;85.60
58519;DHT22;44310;48.106;12.008;2023-04-03T01:37:58;16.90;85.50
58519;DHT22;44310;48.106;12.008;2023-04-03T01:40:25;16.90;85.40
58519;DHT22;44310;48.106;12.008;2023-04-03T01:42:52;16.90;85.40
58519;DHT22;44310;48.106;12.008;2023-04-03T01:45:19;16.90;85.70
58519;DHT22;44310;48.106;12.008;2023-04-03T01:47:46;16.90;85.60
58519;DHT22;44310;48.106;12.008;2023-04-03T01:50:13;17.20;85.60
58519;DHT22;44310;48.106;12.008;2023-04-03T01:52:40;16.90;85.50
58519;DHT22;44310;48.106;12.008;2023-04-03T01:55:08;16.90;85.00
58519;DHT22;44310;48.106;12.008;2023-04-03T01:57:35;16.80;84.70
58519;DHT22;44310;48.106;12.008;2023-04-03T02:00:03;16.90;85.50
58519;DHT22;44310;48.106;12.008;2023-04-03T02:02:30;16.90;86.00
58519;DHT22;44310;48.106;12.008;2023-04-03T02:04:57;17.00;86.10
58519;DHT22;44310;48.106;12.008;2023-04-03T02:07:24;17.00;86.20
58519;DHT22;44310;48.106;12.008;2023-04-03T02:09:52;17.00;86.20
58519;DHT22;44310;48.106;12.008;2023-04-03T02:12:19;17.00;86.50
58519;DHT22;44310;48.106;12.008;2023-04-03T02:14:46;17.00;87.00
58519;DHT22;44310;48.106;12.008;2023-04-03T02:17:13;16.90;86.60
58519;DHT22;44310;48.106;12.008;2023-04-03T02:19:41;16.90;86.40
58519;DHT22;44310;48.106;12.008;2023-04-03T02:22:08;16.90;86.20
58519;DHT22;44310;48.106;12.008;2023-04-03T02:24:35;16.90;85.80
58519;DHT22;44310;48.106;12.008;2023-04-03T02:27:02;16.90;85.50
58519;DHT22;44310;48.106;12.008;2023-04-03T02:29:29;16.80;85.30
58519;DHT22;44310;48.106;12.008;2023-04-03T02:31:56;16.80;85.20
58519;DHT22;44310;48.106;12.008;2023-04-03T02:34:23;16.80;85.20
58519;DHT22;44310;48.106;12.008;2023-04-03T02:36:50;16.80;85.20
58519;DHT22;44310;48.106;12.008;2023-04-03T02:39:18;16.80;85.20
58519;DHT22;44310;48.106;12.008;2023-04-03T02:41:45;16.80;85.00
58519;DHT22;44310;48.106;12.008;2023-04-03T02:44:12;16.80;85.10
58519;DHT22;44310;48.106;12.008;2023-04-03T02:46:39;16.90;86.50
58519;DHT22;44310;48.106;12.008;2023-04-03T02:49:07;16.90;86.80
58519;DHT22;44310;48.106;12.008;2023-04-03T02:51:34;17.00;86.90
58519;DHT22;44310;48.106;12.008;2023-04-03T02:54:01;17.00;87.10
58519;DHT22;44310;48.106;12.008;2023-04-03T02:56:28;16.70;87.70
58519;DHT22;44310;48.106;12.008;2023-04-03T02:58:55;17.00;87.90
58519;DHT22;44310;48.106;12.008;2023-04-03T03:01:22;17.10;87.90
58519;DHT22;44310;48.106;12.008;2023-04-03T03:03:49;17.00;88.10
58519;DHT22;44310;48.106;12.008;2023-04-03T03:06:17;17.00;88.00
58519;DHT22;44310;48.106;12.008;2023-04-03T03:08:44;17.00;87.60
58519;DHT22;44310;48.106;12.008;2023-04-03T03:11:12;17.00;87.40
58519;DHT22;44310;48.106;12.008;2023-04-03T03:13:39;17.00;87.10
58519;DHT22;44310;48.106;12.008;2023-04-03T03:16:07;16.90;87.10
58519;DHT22;44310;48.106;12.008;2023-04-03T03:18:35;16.90;86.90
58519;DHT22;44310;48.106;12.008;2023-04-03T03:21:03;16.80;87.30
58519;DHT22;44310;48.106;12.008;2023-04-03T03:23:31;16.80;86.60
58519;DHT22;44310;48.106;12.008;2023-04-03T03:26:01;16.70;86.60
58519;DHT22;44310;48.106;12.008;2023-04-03T03:28:29;16.30;86.40
58519;DHT22;44310;48.106;12.008;2023-04-03T03:30:57;16.80;86.50
58519;DHT22;44310;48.106;12.008;2023-04-03T03:33:25;16.80;86.30
58519;DHT22;44310;48.106;12.008;2023-04-03T03:35:53;16.80;86.10
58519;DHT22;44310;48.106;12.008;2023-04-03T03:38:20;16.70;86.30
58519;DHT22;44310;48.106;12.008;2023-04-03T03:40:48;16.90;87.30
58519;DHT22;44310;48.106;12.008;2023-04-03T03:43:17;17.00;87.30
58519;DHT22;44310;48.106;12.008;2023-04-03T03:45:44;17.10;87.20
58519;DHT22;44310;48.106;12.008;2023-04-03T03:48:12;17.00;87.10
58519;DHT22;44310;48.106;12.008;2023-04-03T03:50:39;17.00;86.90
58519;DHT22;44310;48.106;12.008;2023-04-03T03:53:06;16.90;86.60
58519;DHT22;44310;48.106;12.008;2023-04-03T03:55:33;16.90;86.40
58519;DHT22;44310;48.106;12.008;2023-04-03T03:58:01;16.90;86.30
58519;DHT22;44310;48.106;12.008;2023-04-03T04:00:28;17.10;86.10
58519;DHT22;44310;48.106;12.008;2023-04-03T04:02:56;16.90;85.60
58519;DHT22;44310;48.106;12.008;2023-04-03T04:05:25;16.90;86.10
58519;DHT22;44310;48.106;12.008;2023-04-03T04:07:52;16.50;85.00
58519;DHT22;44310;48.106;12.008;2023-04-03T04:10:19;16.90;85.00
58519;DHT22;44310;48.106;12.008;2023-04-03T04:12:47;16.80;84.70
58519;DHT22;44310;48.106;12.008;2023-04-03T04:15:16;16.90;84.50
58519;DHT22;44310;48.106;12.008;2023-04-03T04:17:43;16.90;84.40
58519;DHT22;44310;48.106;12.008;2023-04-03T04:20:10;16.90;84.30
58519;DHT22;44310;48.106;12.008;2023-04-03T04:22:38;16.90;84.20
58519;DHT22;44310;48.106;12.008;2023-04-03T04:25:06;16.90;84.60
58519;DHT22;44310;48.106;12.008;2023-04-03T04:27:33;17.00;85.20
58519;DHT22;44310;48.106;12.008;2023-04-03T04:30:01;17.00;85.40
58519;DHT22;44310;48.106;12.008;2023-04-03T04:32:28;17.00;85.40
58519;DHT22;44310;48.106;12.008;2023-04-03T04:34:55;16.60;85.50
58519;DHT22;44310;48.106;12.008;2023-04-03T04:37:22;17.00;86.40
58519;DHT22;44310;48.106;12.008;2023-04-03T04:39:49;17.00;86.70
58519;DHT22;44310;48.106;12.008;2023-04-03T04:42:16;17.00;87.00
58519;DHT22;44310;48.106;12.008;2023-04-03T04:44:43;17.70;87.60
58519;DHT22;44310;48.106;12.008;2023-04-03T04:47:11;16.80;87.20
58519;DHT22;44310;48.106;12.008;2023-04-03T04:49:38;17.00;87.20
58519;DHT22;44310;48.106;12.008;2023-04-03T04:52:05;17.00;86.70
58519;DHT22;44310;48.106;12.008;2023-04-03T04:54:33;16.90;86.30
58519;DHT22;44310;48.106;12.008;2023-04-03T04:57:00;16.90;86.20
58519;DHT22;44310;48.106;12.008;2023-04-03T04:59:27;16.90;86.00
58519;DHT22;44310;48.106;12.008;2023-04-03T05:01:54;16.80;85.80
58519;DHT22;44310;48.106;12.008;2023-04-03T05:04:21;16.90;85.90
58519;DHT22;44310;48.106;12.008;2023-04-03T05:06:49;16.80;85.90
58519;DHT22;44310;48.106;12.008;2023-04-03T05:09:16;16.90;86.80
58519;DHT22;44310;48.106;12.008;2023-04-03T05:11:43;17.10;87.40
58519;DHT22;44310;48.106;12.008;2023-04-03T05:14:10;16.80;87.20
58519;DHT22;44310;48.106;12.008;2023-04-03T05:16:38;17.00;86.90
58519;DHT22;44310;48.106;12.008;2023-04-03T05:19:05;17.00;86.70
58519;DHT22;44310;48.106;12.008;2023-04-03T05:21:32;17.00;86.50
58519;DHT22;44310;48.106;12.008;2023-04-03T05:24:01;16.60;86.20
58519;DHT22;44310;48.106;12.008;2023-04-03T05:26:30;17.00;86.10
58519;DHT22;44310;48.106;12.008;2023-04-03T05:28:58;17.00;86.00
58519;DHT22;44310;48.106;12.008;2023-04-03T05:31:25;17.00;85.60
58519;DHT22;44310;48.106;12.008;2023-04-03T05:33:52;17.00;85.50
58519;DHT22;44310;48.106;12.008;2023-04-03T05:36:20;16.90;85.40
58519;DHT22;44310;48.106;12.008;2023-04-03T05:38:47;17.10;85.40
58519;DHT22;44310;48.106;12.008;2023-04-03T05:41:15;17.20;85.40
58519;DHT22;44310;48.106;12.008;2023-04-03T05:43:42;16.90;85.40
58519;DHT22;44310;48.106;12.008;2023-04-03T05:46:18;16.90;85.40
58519;DHT22;44310;48.106;12.008;2023-04-03T05:48:46;16.90;85.30
58519;DHT22;44310;48.106;12.008;2023-04-03T05:51:16;16.90;85.10
58519;DHT22;44310;48.106;12.008;2023-04-03T05:53:44;16.90;85.00
58519;DHT22;44310;48.106;12.008;2023-04-03T05:56:13;16.90;84.90
58519;DHT22;44310;48.106;12.008;2023-04-03T05:58:40;16.90;84.90
58519;DHT22;44310;48.106;12.008;2023-04-03T06:01:07;16.70;85.00
58519;DHT22;44310;48.106;12.008;2023-04-03T06:03:35;16.80;84.90
58519;DHT22;44310;48.106;12.008;2023-04-03T06:06:06;17.00;84.90
58519;DHT22;44310;48.106;12.008;2023-04-03T06:08:33;17.00;84.70
58519;DHT22;44310;48.106;12.008;2023-04-03T06:11:00;17.00;84.60
58519;DHT22;44310;48.106;12.008;2023-04-03T06:13:29;17.00;84.40
58519;DHT22;44310;48.106;12.008;2023-04-03T06:15:56;17.00;84.30
58519;DHT22;44310;48.106;12.008;2023-04-03T06:18:24;17.00;84.10
58519;DHT22;44310;48.106;12.008;2023-04-03T06:20:51;16.90;83.90
58519;DHT22;44310;48.106;12.008;2023-04-03T06:23:18;17.00;83.70
58519;DHT22;44310;48.106;12.008;2023-04-03T06:25:45;16.90;83.50
58519;DHT22;44310;48.106;12.008;2023-04-03T06:28:13;16.90;83.20
58519;DHT22;44310;48.106;12.008;2023-04-03T06:30:40;16.90;83.00
58519;DHT22;44310;48.106;12.008;2023-04-03T06:33:07;16.90;82.90
58519;DHT22;44310;48.106;12.008;2023-04-03T06:35:34;17.20;82.90
58519;DHT22;44310;48.106;12.008;2023-04-03T06:38:02;16.90;82.50
58519;DHT22;44310;48.106;12.008;2023-04-03T06:40:31;16.90;82.30
58519;DHT22;44310;48.106;12.008;2023-04-03T06:42:58;16.90;82.10
58519;DHT22;44310;48.106;12.008;2023-04-03T06:45:25;17.00;82.10
58519;DHT22;44310;48.106;12.008;2023-04-03T06:47:53;16.80;81.80
58519;DHT22;44310;48.106;12.008;2023-04-03T06:50:20;16.90;81.90
58519;DHT22;44310;48.106;12.008;2023-04-03T06:52:47;16.90;81.80
58519;DHT22;44310;48.106;12.008;2023-04-03T06:55:14;16.90;81.70
58519;DHT22;44310;48.106;12.008;2023-04-03T06:57:42;16.90;81.70
58519;DHT22;44310;48.106;12.008;2023-04-03T07:00:12;16.80;81.60
58519;DHT22;44310;48.106;12.008;2023-04-03T07:02:40;16.90;81.60
58519;DHT22;44310;48.106;12.008;2023-04-03T07:05:07;16.90;81.20
58519;DHT22;44310;48.106;12.008;2023-04-03T07:07:35;16.80;81.40
58519;DHT22;44310;48.106;12.008;2023-04-03T07:10:05;16.80;81.70
58519;DHT22;44310;48.106;12.008;2023-04-03T07:12:33;16.90;81.90
58519;DHT22;44310;48.106;12.008;2023-04-03T07:15:00;16.90;82.00
58519;DHT22;44310;48.106;12.008;2023-04-03T07:17:27;17.00;82.70
58519;DHT22;44310;48.106;12.008;2023-04-03T07:19:55;16.90;83.60
58519;DHT22;44310;48.106;12.008;2023-04-03T07:22:22;17.00;83.40
58519;DHT22;44310;48.106;12.008;2023-04-03T07:24:49;17.00;83.30
58519;DHT22;44310;48.106;12.008;2023-04-03T07:27:16;17.00;82.90
58519;DHT22;44310;48.106;12.008;2023-04-03T07:29:44;17.00;82.90
58519;DHT22;44310;48.106;12.008;2023-04-03T07:32:11;17.00;83.90
58519;DHT22;44310;48.106;12.008;2023-04-03T07:34:38;17.00;83.70
58519;DHT22;44310;48.106;12.008;2023-04-03T07:37:06;17.00;83.70
58519;DHT22;44310;48.106;12.008;2023-04-03T07:39:33;17.00;84.00
58519;DHT22;44310;48.106;12.008;2023-04-03T07:42:00;17.00;83.70
58519;DHT22;44310;48.106;12.008;2023-04-03T07:44:28;17.00;83.70
58519;DHT22;44310;48.106;12.008;2023-04-03T07:46:56;17.00;83.60
58519;DHT22;44310;48.106;12.008;2023-04-03T07:49:23;16.60;83.30
58519;DHT22;44310;48.106;12.008;2023-04-03T07:51:51;17.00;83.70
58519;DHT22;44310;48.106;12.008;2023-04-03T07:54:18;16.90;83.60
58519;DHT22;44310;48.106;12.008;2023-04-03T07:56:45;16.80;83.40
58519;DHT22;44310;48.106;12.008;2023-04-03T07:59:12;16.90;83.50
58519;DHT22;44310;48.106;12.008;2023-04-03T08:01:40;17.40;83.80
58519;DHT22;44310;48.106;12.008;2023-04-03T08:04:07;16.90;83.40
58519;DHT22;44310;48.106;12.008;2023-04-03T08:06:34;16.90;83.30
58519;DHT22;44310;48.106;12.008;2023-04-03T08:09:14;16.90;83.20
58519;DHT22;44310;48.106;12.008;2023-04-03T08:11:42;16.90;83.00
58519;DHT22;44310;48.106;12.008;2023-04-03T08:14:10;16.90;82.80
58519;DHT22;44310;48.106;12.008;2023-04-03T08:16:46;17.50;83.10
58519;DHT22;44310;48.106;12.008;2023-04-03T08:19:15;16.90;82.80
58519;DHT22;44310;48.106;12.008;2023-04-03T08:21:53;16.90;81.90
58519;DHT22;44310;48.106;12.008;2023-04-03T08:24:21;16.90;81.50
58519;DHT22;44310;48.106;12.008;2023-04-03T08:26:48;16.50;76.10
58519;DHT22;44310;48.106;12.008;2023-04-03T08:29:16;16.40;79.30
58519;DHT22;44310;48.106;12.008;2023-04-03T08:31:43;16.40;78.40
58519;DHT22;44310;48.106;12.008;2023-04-03T08:34:10;16.80;79.00
58519;DHT22;44310;48.106;12.008;2023-04-03T08:36:38;16.80;78.80
58519;DHT22;44310;48.106;12.008;2023-04-03T08:39:05;16.20;76.70
58519;DHT22;44310;48.106;12.008;2023-04-03T08:41:38;16.20;78.80
58519;DHT22;44310;48.106;12.008;2023-04-03T08:49:56;16.20;79.90
58519;DHT22;44310;48.106;12.008;2023-04-03T08:58:02;16.10;77.60
58519;DHT22;44310;48.106;12.008;2023-04-03T09:00:43;16.20;77.60
58519;DHT22;44310;48.106;12.008;2023-04-03T09:03:15;16.10;78.10
58519;DHT22;44310;48.106;12.008;2023-04-03T09:10:49;16.10;77.80
58519;DHT22;44310;48.106;12.008;2023-04-03T09:13:30;16.10;77.60
58519;DHT22;44310;48.106;12.008;2023-04-03T09:16:00;16.10;77.50
58519;DHT22;44310;48.106;12.008;2023-04-03T09:18:34;16.10;77.20
58519;DHT22;44310;48.106;12.008;2023-04-03T09:21:13;16.10;77.10
58519;DHT22;44310;48.106;12.008;2023-04-03T09:23:50;16.10;76.70
58519;DHT22;44310;48.106;12.008;2023-04-03T09:26:24;16.30;76.90
58519;DHT22;44310;48.106;12.008;2023-04-03T09:28:58;16.10;76.50
58519;DHT22;44310;48.106;12.008;2023-04-03T09:31:31;16.10;76.70
58519;DHT22;44310;48.106;12.008;2023-04-03T09:34:05;16.10;76.70
58519;DHT22;44310;48.106;12.008;2023-04-03T09:36:45;16.10;76.90
58519;DHT22;44310;48.106;12.008;2023-04-03T09:39:15;16.10;75.60
58519;DHT22;44310;48.106;12.008;2023-04-03T09:42:05;16.00;75.50
58519;DHT22;44310;48.106;12.008;2023-04-03T09:44:36;16.00;75.00
58519;DHT22;44310;48.106;12.008;2023-04-03T09:49:45;16.00;73.90
58519;DHT22;44310;48.106;12.008;2023-04-03T09:52:19;16.00;73.50
58519;DHT22;44310;48.106;12.008;2023-04-03T09:54:49;16.00;73.10
58519;DHT22;44310;48.106;12.008;2023-04-03T09:57:16;16.00;72.60
58519;DHT22;44310;48.106;12.008;2023-04-03T10:00:00;16.70;73.00
58519;DHT22;44310;48.106;12.008;2023-04-03T10:02:39;16.00;72.10
58519;DHT22;44310;48.106;12.008;2023-04-03T10:05:30;16.00;72.00
58519;DHT22;44310;48.106;12.008;2023-04-03T10:10:47;15.90;71.20
58519;DHT22;44310;48.106;12.008;2023-04-03T10:13:17;16.00;71.20
58519;DHT22;44310;48.106;12.008;2023-04-03T10:15:55;15.70;71.10
58519;DHT22;44310;48.106;12.008;2023-04-03T10:18:37;16.00;71.60
58519;DHT22;44310;48.106;12.008;2023-04-03T10:21:15;16.00;71.30
58519;DHT22;44310;48.106;12.008;2023-04-03T10:32:19;15.90;71.10
58519;DHT22;44310;48.106;12.008;2023-04-03T10:35:16;16.00;70.90
58519;DHT22;44310;48.106;12.008;2023-04-03T10:40:39;16.00;70.90
58519;DHT22;44310;48.106;12.008;2023-04-03T10:43:36;16.00;70.50
58519;DHT22;44310;48.106;12.008;2023-04-03T10:54:25;16.10;69.70
58519;DHT22;44310;48.106;12.008;2023-04-03T10:57:01;15.90;69.60
58519;DHT22;44310;48.106;12.008;2023-04-03T10:59:43;15.90;69.20
58519;DHT22;44310;48.106;12.008;2023-04-03T11:02:27;16.90;70.50
58519;DHT22;44310;48.106;12.008;2023-04-03T11:05:02;16.00;70.70
58519;DHT22;44310;48.106;12.008;2023-04-03T11:07:37;16.00;69.90
58519;DHT22;44310;48.106;12.008;2023-04-03T11:10:35;16.00;69.70
58519;DHT22;44310;48.106;12.008;2023-04-03T11:14:20;15.90;69.40
58519;DHT22;44310;48.106;12.008;2023-04-03T11:16:19;16.00;69.40
58519;DHT22;44310;48.106;12.008;2023-04-03T11:19:01;15.90;69.00
58519;DHT22;44310;48.106;12.008;2023-04-03T11:21:34;16.00;69.00
58519;DHT22;44310;48.106;12.008;2023-04-03T11:24:27;15.90;68.90
58519;DHT22;44310;48.106;12.008;2023-04-03T11:26:57;15.90;68.80
58519;DHT22;44310;48.106;12.008;2023-04-03T11:29:31;15.90;68.70
58519;DHT22;44310;48.106;12.008;2023-04-03T11:32:08;16.00;68.50
58519;DHT22;44310;48.106;12.008;2023-04-03T11:39:57;16.00;68.30
58519;DHT22;44310;48.106;12.008;2023-04-03T11:42:40;16.00;69.00
58519;DHT22;44310;48.106;12.008;2023-04-03T11:47:59;16.00;69.90
58519;DHT22;44310;48.106;12.008;2023-04-03T11:50:42;16.10;70.40
58519;DHT22;44310;48.106;12.008;2023-04-03T11:58:27;16.20;71.30
58519;DHT22;44310;48.106;12.008;2023-04-03T12:01:04;16.30;72.30
58519;DHT22;44310;48.106;12.008;2023-04-03T12:14:02;15.60;67.20
58519;DHT22;44310;48.106;12.008;2023-04-03T12:16:32;15.50;66.80
58519;DHT22;44310;48.106;12.008;2023-04-03T12:34:45;15.90;70.90
58519;DHT22;44310;48.106;12.008;2023-04-03T12:37:38;16.00;71.50
58519;DHT22;44310;48.106;12.008;2023-04-03T12:40:08;16.10;71.90
58519;DHT22;44310;48.106;12.008;2023-04-03T12:45:41;16.30;73.20
58519;DHT22;44310;48.106;12.008;2023-04-03T12:48:18;16.40;73.50
58519;DHT22;44310;48.106;12.008;2023-04-03T12:50:47;16.90;74.00
58519;DHT22;44310;48.106;12.008;2023-04-03T12:53:36;16.40;73.80
58519;DHT22;44310;48.106;12.008;2023-04-03T12:56:24;17.00;74.20
58519;DHT22;44310;48.106;12.008;2023-04-03T12:58:54;16.50;74.20
58519;DHT22;44310;48.106;12.008;2023-04-03T13:01:24;16.50;74.40
58519;DHT22;44310;48.106;12.008;2023-04-03T13:03:54;16.50;74.70
58519;DHT22;44310;48.106;12.008;2023-04-03T13:08:57;16.50;74.70
58519;DHT22;44310;48.106;12.008;2023-04-03T13:11:43;16.80;75.00
58519;DHT22;44310;48.106;12.008;2023-04-03T13:14:20;16.60;75.00
58519;DHT22;44310;48.106;12.008;2023-04-03T13:16:59;16.60;75.00
58519;DHT22;44310;48.106;12.008;2023-04-03T13:19:27;16.60;75.10
58519;DHT22;44310;48.106;12.008;2023-04-03T13:22:17;16.70;75.20
58519;DHT22;44310;48.106;12.008;2023-04-03T13:24:49;16.60;75.10
58519;DHT22;44310;48.106;12.008;2023-04-03T13:27:17;16.60;75.20
58519;DHT22;44310;48.106;12.008;2023-04-03T13:29:50;16.70;75.20
58519;DHT22;44310;48.106;12.008;2023-04-03T13:32:23;16.60;75.10
58519;DHT22;44310;48.106;12.008;2023-04-03T13:34:52;16.70;75.10
58519;DHT22;44310;48.106;12.008;2023-04-03T13:37:29;16.50;75.00
58519;DHT22;44310;48.106;12.008;2023-04-03T13:40:16;16.70;75.20
58519;DHT22;44310;48.106;12.008;2023-04-03T13:42:43;16.70;75.10
58519;DHT22;44310;48.106;12.008;2023-04-03T13:47:49;16.60;75.10
58519;DHT22;44310;48.106;12.008;2023-04-03T13:50:21;16.70;75.20
58519;DHT22;44310;48.106;12.008;2023-04-03T13:52:53;16.70;75.20
58519;DHT22;44310;48.106;12.008;2023-04-03T13:58:24;16.70;75.20
58519;DHT22;44310;48.106;12.008;2023-04-03T14:03:42;16.70;75.30
58519;DHT22;44310;48.106;12.008;2023-04-03T14:06:15;16.80;75.60
58519;DHT22;44310;48.106;12.008;2023-04-03T14:08:43;16.70;75.90
58519;DHT22;44310;48.106;12.008;2023-04-03T14:11:15;16.70;76.00
58519;DHT22;44310;48.106;12.008;2023-04-03T14:13:44;16.70;76.00
58519;DHT22;44310;48.106;12.008;2023-04-03T14:16:18;16.70;76.00
58519;DHT22;44310;48.106;12.008;2023-04-03T14:18:46;16.70;76.00
58519;DHT22;44310;48.106;12.008;2023-04-03T14:21:16;17.00;76.10
58519;DHT22;44310;48.106;12.008;2023-04-03T14:23:44;16.80;75.90
58519;DHT22;44310;48.106;12.008;2023-04-03T14:26:18;16.80;75.90
58519;DHT22;44310;48.106;12.008;2023-04-03T14:28:46;16.80;75.90
58519;DHT22;44310;48.106;12.008;2023-04-03T14:31:14;16.60;75.70
58519;DHT22;44310;48.106;12.008;2023-04-03T14:33:43;16.80;75.70
58519;DHT22;44310;48.106;12.008;2023-04-03T14:36:16;16.70;75.50
58519;DHT22;44310;48.106;12.008;2023-04-03T14:38:45;16.70;75.30
58519;DHT22;44310;48.106;12.008;2023-04-03T14:41:13;16.70;75.10
58519;DHT22;44310;48.106;12.008;2023-04-03T14:43:44;16.70;75.00
58519;DHT22;44310;48.106;12.008;2023-04-03T14:48:46;16.70;75.00
58519;DHT22;44310;48.106;12.008;2023-04-03T14:51:14;16.80;75.20
58519;DHT22;44310;48.106;12.008;2023-04-03T14:53:43;16.90;75.40
58519;DHT22;44310;48.106;12.008;2023-04-03T14:56:18;16.30;75.10
58519;DHT22;44310;48.106;12.008;2023-04-03T14:58:46;16.80;75.40
58519;DHT22;44310;48.106;12.008;2023-04-03T15:01:17;17.30;75.80
58519;DHT22;44310;48.106;12.008;2023-04-03T15:03:44;17.10;75.60
58519;DHT22;44310;48.106;12.008;2023-04-03T15:06:13;16.80;75.40
58519;DHT22;44310;48.106;12.008;2023-04-03T15:08:41;16.80;75.10
58519;DHT22;44310;48.106;12.008;2023-04-03T15:11:10;16.70;75.00
58519;DHT22;44310;48.106;12.008;2023-04-03T15:13:38;17.10;75.50
58519;DHT22;44310;48.106;12.008;2023-04-03T15:16:14;16.80;75.40
58519;DHT22;44310;48.106;12.008;2023-04-03T15:18:42;16.80;75.30
58519;DHT22;44310;48.106;12.008;2023-04-03T15:21:10;16.70;75.20
58519;DHT22;44310;48.106;12.008;2023-04-03T15:23:37;16.90;75.20
58519;DHT22;44310;48.106;12.008;2023-04-03T15:26:05;16.80;75.10
58519;DHT22;44310;48.106;12.008;2023-04-03T15:28:39;16.80;75.80
58519;DHT22;44310;48.106;12.008;2023-04-03T15:31:06;16.80;75.10
58519;DHT22;44310;48.106;12.008;2023-04-03T15:33:34;16.80;75.00
58519;DHT22;44310;48.106;12.008;2023-04-03T15:36:02;17.30;75.90
58519;DHT22;44310;48.106;12.008;2023-04-03T15:38:37;16.80;75.10
58519;DHT22;44310;48.106;12.008;2023-04-03T15:41:05;16.80;75.20
58519;DHT22;44310;48.106;12.008;2023-04-03T15:43:32;16.70;75.60
58519;DHT22;44310;48.106;12.008;2023-04-03T15:46:01;16.90;75.70
58519;DHT22;44310;48.106;12.008;2023-04-03T15:48:28;16.80;75.60
58519;DHT22;44310;48.106;12.008;2023-04-03T15:50:56;16.80;75.70
58519;DHT22;44310;48.106;12.008;2023-04-03T15:53:25;16.90;75.70
58519;DHT22;44310;48.106;12.008;2023-04-03T15:55:52;16.80;75.60
58519;DHT22;44310;48.106;12.008;2023-04-03T15:58:19;16.80;75.40
58519;DHT22;44310;48.106;12.008;2023-04-03T16:00:46;16.80;75.40
58519;DHT22;44310;48.106;12.008;2023-04-03T16:03:19;16.80;75.40
58519;DHT22;44310;48.106;12.008;2023-04-03T16:05:47;17.80;75.90
58519;DHT22;44310;48.106;12.008;2023-04-03T16:08:14;16.50;74.20
58519;DHT22;44310;48.106;12.008;2023-04-03T16:10:43;16.60;74.00
58519;DHT22;44310;48.106;12.008;2023-04-03T16:13:12;16.60;73.30
58519;DHT22;44310;48.106;12.008;2023-04-03T16:15:39;16.90;73.50
58519;DHT22;44310;48.106;12.008;2023-04-03T16:18:08;16.60;73.30
58519;DHT22;44310;48.106;12.008;2023-04-03T16:20:35;16.60;73.50
58519;DHT22;44310;48.106;12.008;2023-04-03T16:23:03;16.30;73.20
58519;DHT22;44310;48.106;12.008;2023-04-03T16:25:31;16.60;73.10
58519;DHT22;44310;48.106;12.008;2023-04-03T16:27:58;17.20;72.70
58519;DHT22;44310;48.106;12.008;2023-04-03T16:30:25;16.50;72.00
58519;DHT22;44310;48.106;12.008;2023-04-03T16:32:52;16.50;71.70
58519;DHT22;44310;48.106;12.008;2023-04-03T16:35:20;16.50;72.20
58519;DHT22;44310;48.106;12.008;2023-04-03T16:37:47;16.50;72.20
58519;DHT22;44310;48.106;12.008;2023-04-03T16:40:15;16.60;72.60
58519;DHT22;44310;48.106;12.008;2023-04-03T16:42:42;16.50;73.30
58519;DHT22;44310;48.106;12.008;2023-04-03T16:45:09;16.60;73.00
58519;DHT22;44310;48.106;12.008;2023-04-03T16:47:37;16.60;73.40
58519;DHT22;44310;48.106;12.008;2023-04-03T16:50:04;16.60;73.80
58519;DHT22;44310;48.106;12.008;2023-04-03T16:52:32;16.70;74.30
58519;DHT22;44310;48.106;12.008;2023-04-03T16:54:59;16.70;74.50
58519;DHT22;44310;48.106;12.008;2023-04-03T16:57:26;16.70;74.80
58519;DHT22;44310;48.106;12.008;2023-04-03T16:59:54;16.70;75.00
58519;DHT22;44310;48.106;12.008;2023-04-03T17:02:22;16.70;75.40
58519;DHT22;44310;48.106;12.008;2023-04-03T17:04:52;17.30;76.00
58519;DHT22;44310;48.106;12.008;2023-04-03T17:07:20;16.70;75.60
58519;DHT22;44310;48.106;12.008;2023-04-03T17:09:47;16.70;76.00
58519;DHT22;44310;48.106;12.008;2023-04-03T17:12:15;16.70;75.90
58519;DHT22;44310;48.106;12.008;2023-04-03T17:14:43;16.70;76.70